createdAt,value
2023-01-09T00:00:32.117Z,1
2023-01-09T00:01:31.999Z,1
2023-01-09T00:02:32.016Z,2
2023-01-09T00:03:32.026Z,1
2023-01-09T00:04:31.968Z,2
2023-01-09T00:05:31.957Z,2
2023-01-09T00:06:31.951Z,2
2023-01-09T00:07:31.938Z,2
2023-01-09T00:08:31.924Z,2
2023-01-09T00:09:31.912Z,2
2023-01-09T00:10:31.906Z,2
2023-01-09T00:11:31.896Z,2
2023-01-09T00:12:31.887Z,2
2023-01-09T00:13:31.876Z,3
2023-01-09T00:14:31.863Z,3
2023-01-09T00:15:31.876Z,3
2023-01-09T00:16:31.915Z,2
2023-01-09T00:17:31.841Z,2
2023-01-09T00:18:31.819Z,1
2023-01-09T00:19:31.809Z,1
2023-01-09T00:20:31.798Z,1
2023-01-09T00:21:31.796Z,1
2023-01-09T00:22:31.784Z,1
2023-01-09T00:23:31.779Z,1
2023-01-09T00:24:31.761Z,1
2023-01-09T00:25:31.756Z,2
2023-01-09T00:26:31.743Z,2
2023-01-09T00:27:31.729Z,2
2023-01-09T00:28:31.718Z,1
2023-01-09T00:29:31.715Z,1
2023-01-09T00:30:31.728Z,1
2023-01-09T00:31:31.715Z,1
2023-01-09T00:32:31.688Z,1
2023-01-09T00:33:31.683Z,1
2023-01-09T00:34:31.655Z,1
2023-01-09T00:35:31.645Z,1
2023-01-09T00:36:31.649Z,1
2023-01-09T00:37:31.634Z,2
2023-01-09T00:38:31.626Z,3
2023-01-09T00:39:31.608Z,2
2023-01-09T00:40:31.643Z,2
2023-01-09T00:41:31.590Z,1
2023-01-09T00:42:31.575Z,1
2023-01-09T00:43:31.569Z,1
2023-01-09T00:44:31.565Z,1
2023-01-09T00:45:31.643Z,1
2023-01-09T00:46:31.536Z,1
2023-01-09T00:47:31.553Z,1
2023-01-09T00:48:31.526Z,1
2023-01-09T00:49:31.507Z,1
2023-01-09T00:50:31.495Z,1
2023-01-09T00:51:31.490Z,1
2023-01-09T00:52:31.480Z,1
2023-01-09T00:53:31.461Z,1
2023-01-09T00:54:31.459Z,1
2023-01-09T00:55:31.445Z,1
2023-01-09T00:56:31.434Z,1
2023-01-09T00:57:31.431Z,1
2023-01-09T00:58:31.418Z,1
2023-01-09T00:59:31.406Z,1
2023-01-09T01:00:31.393Z,1
2023-01-09T01:01:31.520Z,1
2023-01-09T01:02:31.516Z,1
2023-01-09T01:03:31.384Z,1
2023-01-09T01:04:31.354Z,1
2023-01-09T01:07:31.320Z,1
2023-01-09T01:08:31.316Z,1
2023-01-09T01:09:31.303Z,2
2023-01-09T01:10:31.297Z,2
2023-01-09T01:11:31.281Z,1
2023-01-09T01:12:31.272Z,1
2023-01-09T01:14:31.252Z,1
2023-01-09T01:22:31.170Z,2
2023-01-09T01:23:31.156Z,1
2023-01-09T01:24:31.147Z,1
2023-01-09T01:25:31.139Z,1
2023-01-09T01:26:31.125Z,1
2023-01-09T01:35:31.067Z,1
2023-01-09T01:36:31.028Z,1
2023-01-09T01:37:31.017Z,1
2023-01-09T01:38:31.007Z,1
2023-01-09T01:39:30.996Z,1
2023-01-09T01:40:30.990Z,1
2023-01-09T01:41:30.975Z,1
2023-01-09T01:42:30.986Z,1
2023-01-09T01:43:30.953Z,1
2023-01-09T01:44:30.943Z,1
2023-01-09T01:45:31.031Z,1
2023-01-09T01:46:30.929Z,1
2023-01-09T01:47:30.923Z,1
2023-01-09T01:48:30.905Z,1
2023-01-09T01:49:30.891Z,1
2023-01-09T01:50:30.880Z,1
2023-01-09T01:51:30.898Z,1
2023-01-09T01:52:30.865Z,1
2023-01-09T01:53:30.853Z,1
2023-01-09T01:54:30.840Z,2
2023-01-09T01:55:30.833Z,1
2023-01-09T01:56:30.821Z,1
2023-01-09T01:57:30.813Z,1
2023-01-09T01:58:30.805Z,1
2023-01-09T01:59:30.789Z,1
2023-01-09T02:00:30.785Z,1
2023-01-09T02:01:30.921Z,1
2023-01-09T02:02:30.966Z,1
2023-01-09T02:13:30.649Z,1
2023-01-09T02:16:30.624Z,1
2023-01-09T02:17:30.625Z,1
2023-01-09T02:18:30.600Z,1
2023-01-09T02:19:30.585Z,1
2023-01-09T02:20:30.580Z,1
2023-01-09T02:21:30.564Z,1
2023-01-09T02:27:30.508Z,1
2023-01-09T02:28:30.496Z,1
2023-01-09T02:30:30.490Z,1
2023-01-09T02:38:30.393Z,1
2023-01-09T02:53:30.244Z,1
2023-01-09T02:54:30.228Z,1
2023-01-09T02:55:30.254Z,1
2023-01-09T02:56:30.207Z,1
2023-01-09T02:57:30.220Z,1
2023-01-09T02:58:30.203Z,1
2023-01-09T02:59:30.294Z,1
2023-01-09T03:00:30.186Z,1
2023-01-09T03:01:30.378Z,1
2023-01-09T03:02:30.148Z,1
2023-01-09T03:03:30.145Z,1
2023-01-09T03:04:30.126Z,1
2023-01-09T03:05:30.161Z,1
2023-01-09T03:06:30.113Z,1
2023-01-09T03:07:30.100Z,1
2023-01-09T03:09:30.093Z,1
2023-01-09T03:10:30.069Z,1
2023-01-09T03:11:30.176Z,1
2023-01-09T03:12:30.048Z,1
2023-01-09T03:14:30.044Z,1
2023-01-09T03:15:30.036Z,1
2023-01-09T03:16:30.129Z,1
2023-01-09T03:22:29.951Z,1
2023-01-09T03:23:29.939Z,1
2023-01-09T03:24:29.925Z,1
2023-01-09T03:25:29.919Z,1
2023-01-09T03:26:29.912Z,1
2023-01-09T03:27:29.925Z,16.
2023-01-09T03:28:29.982Z,1
2023-01-09T03:29:29.872Z,1
2023-01-09T03:30:29.865Z,1
2023-01-09T03:31:29.945Z,1
2023-01-09T03:32:29.845Z,1
2023-01-09T03:37:29.790Z,1
2023-01-09T03:38:29.788Z,1
2023-01-09T03:39:29.772Z,1
2023-01-09T03:40:29.764Z,1
2023-01-09T03:41:29.756Z,1
2023-01-09T03:42:29.844Z,1
2023-01-09T03:43:29.756Z,1
2023-01-09T03:44:29.728Z,1
2023-01-09T03:45:29.771Z,1
2023-01-09T03:46:29.703Z,2
2023-01-09T03:47:29.697Z,1
2023-01-09T03:48:29.681Z,1
2023-01-09T03:49:29.671Z,1
2023-01-09T03:50:29.682Z,2
2023-01-09T03:51:29.655Z,2
2023-01-09T03:52:29.642Z,1
2023-01-09T03:53:29.632Z,1
2023-01-09T03:54:29.619Z,2
2023-01-09T03:55:29.606Z,1
2023-01-09T03:56:29.604Z,1
2023-01-09T03:57:29.585Z,1
2023-01-09T03:59:29.595Z,1
2023-01-09T04:01:29.745Z,1
2023-01-09T04:02:29.540Z,1
2023-01-09T04:03:29.627Z,1
2023-01-09T04:04:29.522Z,1
2023-01-09T04:11:29.450Z,1
2023-01-09T04:12:29.437Z,1
2023-01-09T04:13:29.423Z,1
2023-01-09T04:14:29.413Z,1
2023-01-09T04:15:29.427Z,1
2023-01-09T04:16:29.503Z,2
2023-01-09T04:17:29.382Z,2
2023-01-09T04:18:29.373Z,2
2023-01-09T04:19:29.361Z,2
2023-01-09T04:20:29.354Z,2
2023-01-09T04:21:29.344Z,2
2023-01-09T04:22:29.332Z,3
2023-01-09T04:23:29.325Z,2
2023-01-09T04:24:29.316Z,2
2023-01-09T04:25:29.300Z,1
2023-01-09T04:26:29.294Z,1
2023-01-09T04:27:29.288Z,1
2023-01-09T04:28:29.270Z,1
2023-01-09T04:29:29.263Z,1
2023-01-09T04:30:29.254Z,1
2023-01-09T04:31:29.291Z,1
2023-01-09T04:32:29.227Z,1
2023-01-09T04:33:29.221Z,1
2023-01-09T04:34:29.224Z,1
2023-01-09T04:35:29.209Z,1
2023-01-09T04:41:29.138Z,1
2023-01-09T04:42:29.133Z,1
2023-01-09T04:43:29.120Z,1
2023-01-09T04:44:29.112Z,1
2023-01-09T04:45:29.142Z,1
2023-01-09T04:49:29.058Z,1
2023-01-09T04:50:31.280Z,1
2023-01-09T04:51:29.034Z,1
2023-01-09T04:54:29.002Z,1
2023-01-09T04:55:28.996Z,2
2023-01-09T04:56:28.988Z,1
2023-01-09T04:57:28.974Z,2
2023-01-09T04:58:28.965Z,2
2023-01-09T04:59:28.955Z,1
2023-01-09T05:00:28.951Z,1
2023-01-09T05:01:29.076Z,1
2023-01-09T05:02:28.931Z,1
2023-01-09T05:03:29.031Z,1
2023-01-09T05:04:28.995Z,1
2023-01-09T05:05:28.893Z,1
2023-01-09T05:06:28.883Z,1
2023-01-09T05:07:28.873Z,1
2023-01-09T05:08:28.860Z,1
2023-01-09T05:09:28.859Z,1
2023-01-09T05:10:28.839Z,1
2023-01-09T05:11:28.848Z,1
2023-01-09T05:12:28.822Z,1
2023-01-09T05:13:28.807Z,1
2023-01-09T05:14:28.804Z,1
2023-01-09T05:15:28.801Z,1
2023-01-09T05:16:28.846Z,1
2023-01-09T05:17:28.769Z,1
2023-01-09T05:18:28.755Z,2
2023-01-09T05:19:28.771Z,2
2023-01-09T05:20:28.735Z,1
2023-01-09T05:21:28.736Z,1
2023-01-09T05:22:28.719Z,2
2023-01-09T05:23:28.705Z,1
2023-01-09T05:24:28.697Z,1
2023-01-09T05:25:28.687Z,2
2023-01-09T05:26:28.676Z,1
2023-01-09T05:27:28.667Z,2
2023-01-09T05:28:28.659Z,2
2023-01-09T05:29:28.644Z,1
2023-01-09T05:30:28.637Z,2
2023-01-09T05:31:28.645Z,1
2023-01-09T05:32:28.632Z,1
2023-01-09T05:33:28.607Z,1
2023-01-09T05:34:28.595Z,1
2023-01-09T05:35:28.605Z,1
2023-01-09T05:36:28.574Z,1
2023-01-09T05:37:28.565Z,1
2023-01-09T05:38:28.551Z,1
2023-01-09T05:39:28.546Z,1
2023-01-09T05:40:32.249Z,1
2023-01-09T05:41:29.542Z,1
2023-01-09T05:42:28.513Z,1
2023-01-09T05:43:28.503Z,1
2023-01-09T05:44:28.492Z,1
2023-01-09T05:45:28.582Z,1
2023-01-09T05:46:28.487Z,1
2023-01-09T05:47:28.464Z,1
2023-01-09T05:48:28.452Z,1
2023-01-09T05:49:28.444Z,1
2023-01-09T05:50:28.432Z,1
2023-01-09T05:51:28.447Z,1
2023-01-09T05:52:28.421Z,1
2023-01-09T05:53:28.400Z,1
2023-01-09T05:54:28.391Z,2
2023-01-09T05:55:28.379Z,1
2023-01-09T05:56:28.367Z,1
2023-01-09T05:57:28.355Z,1
2023-01-09T05:58:28.353Z,1
2023-01-09T05:59:28.335Z,1
2023-01-09T06:00:28.338Z,1
2023-01-09T06:01:28.430Z,1
2023-01-09T06:02:28.470Z,1
2023-01-09T06:04:28.286Z,1
2023-01-09T06:05:28.272Z,1
2023-01-09T06:06:28.288Z,1
2023-01-09T06:09:28.231Z,1
2023-01-09T06:21:28.143Z,10.
2023-01-09T06:22:28.104Z,10.
2023-01-09T06:23:28.130Z,9.
2023-01-09T06:24:28.097Z,9.
2023-01-09T06:25:28.070Z,13.
2023-01-09T06:26:28.078Z,9.
2023-01-09T06:27:28.050Z,10.
2023-01-09T06:28:28.039Z,9.
2023-01-09T06:29:28.043Z,8.
2023-01-09T06:32:28.002Z,9.
2023-01-09T06:33:27.999Z,9.
2023-01-09T06:34:27.981Z,14.
2023-01-09T06:35:27.976Z,15.
2023-01-09T06:36:27.964Z,13.
2023-01-09T06:37:27.994Z,10.
2023-01-09T06:39:27.953Z,1
2023-01-09T06:40:27.919Z,12.
2023-01-09T06:41:27.913Z,16.
2023-01-09T06:42:27.902Z,14.
2023-01-09T06:43:27.888Z,16.
2023-01-09T06:44:27.880Z,19.
2023-01-09T06:45:27.871Z,20.
2023-01-09T06:46:27.890Z,20.
2023-01-09T06:47:27.846Z,16.
2023-01-09T06:48:27.841Z,19.
2023-01-09T06:49:27.825Z,19.
2023-01-09T06:50:27.818Z,19.
2023-01-09T06:51:27.813Z,18.
2023-01-09T06:52:27.798Z,20.
2023-01-09T06:53:27.786Z,21.
2023-01-09T06:54:28.780Z,20.
2023-01-09T06:55:27.789Z,18.
2023-01-09T06:56:27.759Z,14.
2023-01-09T06:57:27.861Z,14.
2023-01-09T06:58:27.737Z,14.
2023-01-09T06:59:27.725Z,12.
2023-01-09T07:00:27.715Z,13.
2023-01-09T07:01:27.808Z,12.
2023-01-09T07:02:27.693Z,13.
2023-01-09T07:03:27.682Z,11.
2023-01-09T07:04:27.733Z,10.
2023-01-09T07:05:27.818Z,9.
2023-01-09T07:06:27.663Z,8.
2023-01-09T07:07:27.643Z,8.
2023-01-09T07:08:27.653Z,9.
2023-01-09T07:09:27.639Z,10.
2023-01-09T07:10:27.631Z,10.
2023-01-09T07:11:27.628Z,10.
2023-01-09T07:12:27.594Z,7.
2023-01-09T07:13:27.584Z,6.
2023-01-09T07:14:27.567Z,6.
2023-01-09T07:15:27.558Z,5.
2023-01-09T07:16:27.548Z,6.
2023-01-09T07:17:27.556Z,5.
2023-01-09T07:18:27.532Z,5.
2023-01-09T07:19:27.528Z,6.
2023-01-09T07:20:27.514Z,6.
2023-01-09T07:21:27.502Z,6.
2023-01-09T07:22:27.493Z,7.
2023-01-09T07:23:27.485Z,7.
2023-01-09T07:24:27.468Z,9.
2023-01-09T07:25:27.461Z,9.
2023-01-09T07:26:27.449Z,8.
2023-01-09T07:27:27.463Z,8.
2023-01-09T07:28:27.431Z,7.
2023-01-09T07:29:27.426Z,6.
2023-01-09T07:30:27.423Z,7.
2023-01-09T07:31:27.422Z,6.
2023-01-09T07:32:27.387Z,7.
2023-01-09T07:33:27.385Z,8.
2023-01-09T07:34:27.368Z,7.
2023-01-09T07:35:27.356Z,7.
2023-01-09T07:36:27.349Z,8.
2023-01-09T07:37:27.337Z,6.
2023-01-09T07:38:27.328Z,7.
2023-01-09T07:39:27.321Z,7.
2023-01-09T07:40:27.341Z,8.
2023-01-09T07:41:27.298Z,9.
2023-01-09T07:42:27.284Z,8.
2023-01-09T07:43:27.395Z,8.
2023-01-09T07:44:27.270Z,8.
2023-01-09T07:45:27.251Z,8.
2023-01-09T07:46:27.328Z,7.
2023-01-09T07:47:27.243Z,7.
2023-01-09T07:48:27.225Z,5.
2023-01-09T07:49:27.222Z,4.
2023-01-09T07:50:27.211Z,4.
2023-01-09T07:51:27.198Z,4.
2023-01-09T07:52:27.182Z,5.
2023-01-09T07:53:27.174Z,6.
2023-01-09T07:54:27.163Z,7.
2023-01-09T07:55:27.158Z,8.
2023-01-09T07:56:27.137Z,8.
2023-01-09T07:57:27.135Z,9.
2023-01-09T07:58:27.119Z,9.
2023-01-09T07:59:27.134Z,9.
2023-01-09T08:00:27.100Z,9.
2023-01-09T08:01:27.209Z,9.
2023-01-09T08:02:27.154Z,9.
2023-01-09T08:03:27.071Z,11.
2023-01-09T08:04:27.058Z,12.
2023-01-09T08:05:27.051Z,20.
2023-01-09T08:06:27.038Z,37.
2023-01-09T08:07:27.025Z,26.
2023-01-09T08:08:27.018Z,15.
2023-01-09T08:09:27.004Z,10.
2023-01-09T08:10:26.997Z,10.
2023-01-09T08:11:26.987Z,11.
2023-01-09T08:12:26.971Z,11.
2023-01-09T08:13:26.968Z,11.69
2023-01-09T08:14:26.993Z,12.
2023-01-09T08:15:26.977Z,12.
2023-01-09T08:16:26.936Z,12.
2023-01-09T08:17:26.928Z,12.
2023-01-09T08:18:26.910Z,11.
2023-01-09T08:19:26.908Z,11.
2023-01-09T08:20:26.957Z,11.
2023-01-09T08:21:26.882Z,11.
2023-01-09T08:22:26.879Z,11.
2023-01-09T08:23:26.868Z,12.
2023-01-09T08:24:26.857Z,11.
2023-01-09T08:25:26.835Z,10.
2023-01-09T08:26:26.876Z,10.
2023-01-09T08:27:26.825Z,11.
2023-01-09T08:28:26.809Z,11.
2023-01-09T08:29:26.795Z,11.
2023-01-09T08:30:26.793Z,11.
2023-01-09T08:31:26.910Z,11.
2023-01-09T08:32:26.763Z,11.
2023-01-09T08:33:26.751Z,11.
2023-01-09T08:34:26.783Z,12.
2023-01-09T08:35:26.736Z,11.
2023-01-09T08:36:26.747Z,11.
2023-01-09T08:37:26.716Z,11.
2023-01-09T08:38:26.723Z,11.
2023-01-09T08:39:26.689Z,10.
2023-01-09T08:40:26.689Z,11.
2023-01-09T08:41:26.668Z,11.
2023-01-09T08:42:26.661Z,11.
2023-01-09T08:43:26.647Z,11.
2023-01-09T08:44:26.643Z,10.
2023-01-09T08:45:26.632Z,11.
2023-01-09T08:46:26.631Z,11.
2023-01-09T08:47:26.629Z,10.
2023-01-09T08:48:26.596Z,10.
2023-01-09T08:49:26.587Z,10.
2023-01-09T08:50:26.574Z,9.
2023-01-09T08:51:26.564Z,10.
2023-01-09T08:52:26.637Z,11.
2023-01-09T08:53:26.542Z,11.
2023-01-09T08:54:26.532Z,10.
2023-01-09T08:55:26.521Z,12.
2023-01-09T08:56:26.523Z,11.
2023-01-09T08:57:26.505Z,11.
2023-01-09T08:58:26.488Z,11.
2023-01-09T08:59:26.484Z,11.
2023-01-09T09:00:26.522Z,11.
2023-01-09T09:01:26.478Z,10.
2023-01-09T09:02:26.461Z,10.
2023-01-09T09:03:26.464Z,10.
2023-01-09T09:04:26.439Z,12.
2023-01-09T09:05:26.417Z,11.
2023-01-09T09:06:26.521Z,10.
2023-01-09T09:07:26.412Z,10.
2023-01-09T09:08:26.383Z,9.
2023-01-09T09:09:26.381Z,9.
2023-01-09T09:10:26.371Z,9.
2023-01-09T09:11:26.352Z,9.
2023-01-09T09:12:26.342Z,9.
2023-01-09T09:13:26.335Z,9.
2023-01-09T09:14:26.334Z,9.
2023-01-09T09:15:26.329Z,9.
2023-01-09T09:16:26.456Z,9.
2023-01-09T09:17:26.294Z,9.
2023-01-09T09:18:26.283Z,9.
2023-01-09T09:19:26.292Z,10.
2023-01-09T09:20:26.261Z,10.
2023-01-09T09:21:26.260Z,10.
2023-01-09T09:22:26.241Z,10.
2023-01-09T09:23:26.234Z,9.
2023-01-09T09:24:26.222Z,9.
2023-01-09T09:25:26.218Z,10.
2023-01-09T09:26:26.204Z,10.
2023-01-09T09:27:26.194Z,10.19
2023-01-09T09:28:26.198Z,11.
2023-01-09T09:29:26.177Z,11.
2023-01-09T09:30:26.160Z,11.
2023-01-09T09:31:26.234Z,11.
2023-01-09T09:32:26.134Z,11.
2023-01-09T09:33:26.124Z,10.69
2023-01-09T09:34:26.113Z,10.
2023-01-09T09:35:26.176Z,10.
2023-01-09T09:36:26.098Z,9.
2023-01-09T09:37:26.086Z,9.
2023-01-09T09:38:26.075Z,10.
2023-01-09T09:39:26.065Z,10.
2023-01-09T09:40:26.061Z,10.
2023-01-09T09:41:26.041Z,10.
2023-01-09T09:42:26.039Z,10.
2023-01-09T09:43:26.022Z,10.
2023-01-09T09:44:26.008Z,10.
2023-01-09T09:45:26.014Z,10.
2023-01-09T09:46:26.028Z,9.
2023-01-09T09:47:25.990Z,9.
2023-01-09T09:48:25.974Z,10.
2023-01-09T09:49:25.961Z,9.
2023-01-09T09:50:25.947Z,9.
2023-01-09T09:51:25.976Z,9.
2023-01-09T09:52:25.935Z,8.
2023-01-09T09:53:25.923Z,8.
2023-01-09T09:54:25.911Z,7.
2023-01-09T09:55:25.899Z,7.
2023-01-09T09:56:25.894Z,6.
2023-01-09T09:57:25.875Z,6.
2023-01-09T09:58:25.868Z,5.
2023-01-09T09:59:27.023Z,5.
2023-01-09T10:00:25.851Z,5.
2023-01-09T10:01:25.839Z,5.
2023-01-09T10:02:25.881Z,4.
2023-01-09T10:03:33.409Z,4.
2023-01-09T10:04:26.831Z,4.
2023-01-09T10:05:25.792Z,4.
2023-01-09T10:06:25.779Z,3.
2023-01-09T10:07:25.792Z,3.
2023-01-09T10:08:25.762Z,2.
2023-01-09T10:09:25.749Z,2.
2023-01-09T10:10:25.739Z,2.
2023-01-09T10:11:25.726Z,2.20
2023-01-09T10:12:25.721Z,3.09
2023-01-09T10:13:25.708Z,1.90
2023-01-09T10:14:25.698Z,3.09
2023-01-09T10:15:25.683Z,2.00
2023-01-09T10:16:25.758Z,2.50
2023-01-09T10:17:25.681Z,2.00
2023-01-09T10:18:25.656Z,2.09
2023-01-09T10:19:25.692Z,2.29
2023-01-09T10:20:25.632Z,1.90
2023-01-09T10:21:25.628Z,2.00
2023-01-09T10:22:25.614Z,1.70
2023-01-09T10:23:25.628Z,1.50
2023-01-09T10:24:25.592Z,1.79
2023-01-09T10:25:25.584Z,1.50
2023-01-09T10:26:25.573Z,1.70
2023-01-09T10:27:25.560Z,1.60
2023-01-09T10:28:25.564Z,1.70
2023-01-09T10:29:25.540Z,1.90
2023-01-09T10:30:25.537Z,3.29
2023-01-09T10:31:25.602Z,3.59
2023-01-09T10:32:25.528Z,2.79
2023-01-09T10:33:25.497Z,2.59
2023-01-09T10:34:25.498Z,3.29
2023-01-09T10:35:26.199Z,2.90
2023-01-09T10:36:25.496Z,2.20
2023-01-09T10:37:25.457Z,1.90
2023-01-09T10:38:25.462Z,2.29
2023-01-09T10:39:25.463Z,2.09
2023-01-09T10:41:04.697Z,2.40
2023-01-09T10:41:25.414Z,2.59
2023-01-09T10:42:25.414Z,2.59
2023-01-09T10:44:56.216Z,2.50
2023-01-09T10:45:00.442Z,2.20
2023-01-09T10:45:57.620Z,2.20
2023-01-09T10:46:57.688Z,2.00
2023-01-09T10:47:57.602Z,1.90
2023-01-09T10:48:57.591Z,2.00
2023-01-09T10:51:12.294Z,2.00
2023-01-09T10:51:13.726Z,2.00
2023-01-09T10:52:15.705Z,2.00
2023-01-09T10:56:00.210Z,2.20
2023-01-09T10:56:01.631Z,1.90
2023-01-09T10:57:01.617Z,2.00
2023-01-09T12:10:59.085Z,1.79
2023-01-09T15:16:41.707Z,1.29
2023-01-09T15:16:45.399Z,1.39
2023-01-09T15:20:17.272Z,1.39
2023-01-09T15:20:18.858Z,1.39
2023-01-09T15:21:18.697Z,1.39
2023-01-09T15:22:18.686Z,1.10
2023-01-09T15:23:18.671Z,1.10
2023-01-09T15:24:18.669Z,1.10
2023-01-09T15:25:20.805Z,1.29
2023-01-09T15:26:18.645Z,1.39
2023-01-09T15:27:18.635Z,1.20
2023-01-09T15:28:18.626Z,1.29
2023-01-09T15:29:18.612Z,1.70
2023-01-09T15:30:18.607Z,1.39
2023-01-09T15:31:18.641Z,1.20
2023-01-09T15:32:18.607Z,1.50
2023-01-09T15:33:18.589Z,1.39
2023-01-09T15:34:18.569Z,1.29
2023-01-09T15:35:18.555Z,1.39
2023-01-09T15:36:18.553Z,1.29
2023-01-09T15:38:18.525Z,1.29
2023-01-09T15:39:18.532Z,1.50
2023-01-09T15:40:18.503Z,1.29
2023-01-09T15:41:18.498Z,1.29
2023-01-09T15:42:18.480Z,1.29
2023-01-09T15:43:18.502Z,1.39
2023-01-09T15:44:18.462Z,1.20
2023-01-09T15:45:18.451Z,1.10
2023-01-09T15:46:18.462Z,1.10
2023-01-09T15:47:18.439Z,1.20
2023-01-09T15:48:18.445Z,1.29
2023-01-09T15:49:18.411Z,1.39
2023-01-09T15:50:18.401Z,1.29
2023-01-09T15:51:18.391Z,1.20
2023-01-09T15:52:18.385Z,1.29
2023-01-09T15:53:18.373Z,1.29
2023-01-09T15:54:18.354Z,1.50
2023-01-09T15:55:18.346Z,1.50
2023-01-09T15:56:18.348Z,1.70
2023-01-09T15:57:18.327Z,1.60
2023-01-09T15:58:18.317Z,1.39
2023-01-09T15:59:18.309Z,1.70
2023-01-09T16:00:18.300Z,1.90
2023-01-09T16:01:18.326Z,1.79
2023-01-09T16:02:18.287Z,1.90
2023-01-09T16:03:18.263Z,1.90
2023-01-09T16:04:18.274Z,1.90
2023-01-09T16:05:18.241Z,1.90
2023-01-09T16:06:18.229Z,1.90
2023-01-09T16:07:18.219Z,2.50
2023-01-09T16:08:18.215Z,2.20
2023-01-09T16:09:18.248Z,2.40
2023-01-09T16:10:18.198Z,2.59
2023-01-09T16:11:18.176Z,2.50
2023-01-09T16:12:18.167Z,2.50
2023-01-09T16:13:18.160Z,2.50
2023-01-09T16:14:18.152Z,2.29
2023-01-09T16:15:18.145Z,2.50
2023-01-09T16:16:18.160Z,2.50
2023-01-09T16:17:18.136Z,2.29
2023-01-09T16:18:18.105Z,2.59
2023-01-09T16:19:18.095Z,2.50
2023-01-09T16:20:18.109Z,2.
2023-01-09T16:21:18.080Z,2.40
2023-01-09T16:22:18.065Z,2.40
2023-01-09T16:23:18.052Z,2.59
2023-01-09T16:24:18.041Z,2.50
2023-01-09T16:25:18.034Z,2.29
2023-01-09T16:26:18.024Z,2.09
2023-01-09T16:27:18.010Z,2.29
2023-01-09T16:29:17.995Z,2.29
2023-01-09T16:30:17.992Z,2.70
2023-01-09T16:31:18.035Z,2.40
2023-01-09T16:32:17.963Z,2.40
2023-01-09T16:33:17.949Z,2.59
2023-01-09T16:34:17.943Z,2.59
2023-01-09T16:35:17.930Z,2.59
2023-01-09T16:36:17.944Z,2.50
2023-01-09T16:37:17.986Z,2.59
2023-01-09T16:38:17.919Z,2.29
2023-01-09T16:39:17.884Z,2.
2023-01-09T16:40:17.877Z,2.
2023-01-09T16:41:17.866Z,2.
2023-01-09T16:42:17.864Z,2.
2023-01-09T16:43:17.847Z,2.
2023-01-09T16:44:17.835Z,2.70
2023-01-09T16:45:17.823Z,2.59
2023-01-09T16:46:17.918Z,2.
2023-01-09T16:47:17.811Z,2.
2023-01-09T16:48:17.889Z,2.
2023-01-09T16:49:17.799Z,2.
2023-01-09T16:50:17.772Z,2.
2023-01-09T16:51:17.768Z,2.
2023-01-09T16:52:17.879Z,2.
2023-01-09T16:53:17.759Z,2.50
2023-01-09T16:54:17.732Z,2.79
2023-01-09T16:55:17.729Z,2.70
2023-01-09T16:56:17.712Z,2.59
2023-01-09T16:57:17.701Z,2.70
2023-01-09T16:58:18.705Z,2.
2023-01-09T16:59:17.684Z,2.
2023-01-09T17:00:17.671Z,2.
2023-01-09T17:01:17.687Z,2.
2023-01-09T17:02:17.738Z,2.
2023-01-09T17:03:17.651Z,2.
2023-01-09T17:04:17.626Z,2.
2023-01-09T17:05:17.615Z,2.
2023-01-09T17:06:17.604Z,2.
2023-01-09T17:07:17.595Z,2.
2023-01-09T17:09:17.577Z,2.
2023-01-09T17:10:17.569Z,2.
2023-01-09T17:11:17.553Z,2.
2023-01-09T17:12:17.548Z,2.
2023-01-09T17:13:17.531Z,2.
2023-01-09T17:14:17.526Z,3.
2023-01-09T17:15:17.511Z,3.
2023-01-09T17:16:17.624Z,3.
2023-01-09T17:18:17.483Z,3.
2023-01-09T17:19:17.467Z,2.
2023-01-09T17:20:17.459Z,3.
2023-01-09T17:21:17.457Z,2.
2023-01-09T17:22:17.436Z,3.
2023-01-09T17:23:17.428Z,3.
2023-01-09T17:24:17.442Z,3.
2023-01-09T17:25:17.420Z,2.
2023-01-09T17:26:17.401Z,2.
2023-01-09T17:27:17.396Z,3.
2023-01-09T17:28:17.377Z,2.
2023-01-09T17:29:17.362Z,3.
2023-01-09T17:30:19.474Z,3.
2023-01-09T17:31:17.478Z,3.
2023-01-09T17:32:17.475Z,3.
2023-01-09T17:33:17.337Z,2.
2023-01-09T17:34:17.312Z,2.
2023-01-09T17:35:17.315Z,2.
2023-01-09T17:36:17.290Z,3.
2023-01-09T17:37:17.409Z,2.
2023-01-09T17:38:17.277Z,2.
2023-01-09T17:39:17.260Z,2.
2023-01-09T17:40:17.276Z,2.
2023-01-09T17:41:17.242Z,2.
2023-01-09T17:42:17.230Z,2.
2023-01-09T17:43:17.217Z,2.
2023-01-09T17:44:17.210Z,3.
2023-01-09T17:45:17.206Z,2.
2023-01-09T17:46:17.312Z,3.
2023-01-09T17:47:17.179Z,2.
2023-01-09T17:48:17.177Z,2.
2023-01-09T17:49:17.157Z,2.
2023-01-09T17:50:17.155Z,2.
2023-01-09T17:51:17.139Z,2.
2023-01-09T17:52:17.127Z,2.
2023-01-09T17:53:17.119Z,2.
2023-01-09T17:54:17.961Z,2.
2023-01-09T17:55:17.100Z,2.
2023-01-09T17:56:17.115Z,2.
2023-01-09T17:57:17.077Z,2.
2023-01-09T17:58:17.065Z,2.
2023-01-09T17:59:17.064Z,2.
2023-01-09T18:00:17.045Z,2.
2023-01-09T18:01:17.144Z,2.
2023-01-09T18:02:17.101Z,2.
2023-01-09T18:03:17.013Z,2.
2023-01-09T18:04:17.009Z,2.
2023-01-09T18:05:16.993Z,2.
2023-01-09T18:06:16.985Z,2.
2023-01-09T18:07:16.978Z,2.
2023-01-09T18:08:16.964Z,2.
2023-01-09T18:09:16.957Z,2.
2023-01-09T18:10:16.941Z,2.
2023-01-09T18:11:16.936Z,2.
2023-01-09T18:12:16.949Z,3.
2023-01-09T18:13:16.914Z,10.
2023-01-09T18:14:16.902Z,5.
2023-01-09T18:15:16.909Z,4.
2023-01-09T18:16:17.012Z,3.
2023-01-09T18:17:16.881Z,3.
2023-01-09T18:18:16.857Z,4.
2023-01-09T18:19:16.864Z,4.
2023-01-09T18:20:16.862Z,5.
2023-01-09T18:21:16.834Z,4.
2023-01-09T18:22:16.823Z,3.
2023-01-09T18:23:16.808Z,4.
2023-01-09T18:24:16.802Z,10.
2023-01-09T18:25:16.788Z,5.
2023-01-09T18:26:16.775Z,3.
2023-01-09T18:27:16.779Z,2.
2023-01-09T18:28:16.782Z,3.
2023-01-09T18:29:16.743Z,9.
2023-01-09T18:30:16.751Z,7.
2023-01-09T18:31:16.762Z,16.
2023-01-09T18:32:16.756Z,30.
2023-01-09T18:33:16.706Z,8.
2023-01-09T18:34:16.694Z,13.
2023-01-09T18:35:16.692Z,18.
2023-01-09T18:36:16.772Z,26.
2023-01-09T18:37:16.805Z,2
2023-01-09T18:38:16.679Z,9.
2023-01-09T18:39:16.651Z,4.
2023-01-09T18:40:16.645Z,5.
2023-01-09T18:41:16.633Z,3.
2023-01-09T18:42:16.622Z,2.
2023-01-09T18:43:16.604Z,11.
2023-01-09T18:44:16.619Z,7.
2023-01-09T18:45:16.584Z,3.
2023-01-09T18:46:16.630Z,3.
2023-01-09T18:47:16.566Z,4.
2023-01-09T18:48:16.549Z,3.
2023-01-09T18:49:16.574Z,3.
2023-01-09T18:50:16.539Z,5.
2023-01-09T18:51:16.520Z,8.
2023-01-09T18:52:16.522Z,6.
2023-01-09T18:53:16.499Z,4.
2023-01-09T18:55:16.483Z,5.
2023-01-09T18:56:16.495Z,4.
2023-01-09T18:57:16.463Z,8.
2023-01-09T18:58:16.460Z,3.
2023-01-09T18:59:16.437Z,3.
2023-01-09T19:00:16.451Z,3.
2023-01-09T19:01:16.538Z,2.
2023-01-09T19:02:16.408Z,4.
2023-01-09T19:03:16.399Z,3.
2023-01-09T19:04:16.428Z,4.
2023-01-09T19:05:16.380Z,2.
2023-01-09T19:06:16.366Z,3.
2023-01-09T19:07:16.368Z,2.
2023-01-09T19:09:16.336Z,3.
2023-01-09T19:10:16.348Z,4.
2023-01-09T19:11:16.327Z,3.
2023-01-09T19:12:16.304Z,3.
2023-01-09T19:13:16.296Z,3.
2023-01-09T19:14:16.291Z,3.
2023-01-09T19:15:16.273Z,3.
2023-01-09T19:16:16.378Z,2.
2023-01-09T19:17:16.257Z,3.
2023-01-09T19:18:16.246Z,2.
2023-01-09T19:19:16.234Z,3.
2023-01-09T19:20:16.224Z,3.
2023-01-09T19:21:16.238Z,3.
2023-01-09T19:22:16.211Z,2.
2023-01-09T19:23:16.193Z,3.
2023-01-09T19:25:16.171Z,2.
2023-01-09T19:26:16.163Z,2.
2023-01-09T19:27:16.147Z,2.
2023-01-09T19:28:16.145Z,2.
2023-01-09T19:29:16.128Z,2.
2023-01-09T19:30:16.117Z,2.
2023-01-09T19:31:16.234Z,2.
2023-01-09T19:32:16.118Z,2.
2023-01-09T19:33:16.093Z,2.
2023-01-09T19:34:16.090Z,2.
2023-01-09T19:35:16.066Z,2.
2023-01-09T19:38:16.038Z,2.
2023-01-09T19:39:16.026Z,2.
2023-01-09T19:40:16.022Z,2.
2023-01-09T19:41:16.018Z,2.
2023-01-09T19:42:15.995Z,2.
2023-01-09T19:43:15.980Z,2.
2023-01-09T19:44:15.971Z,2.
2023-01-09T19:45:15.964Z,2.
2023-01-09T19:46:16.012Z,2.
2023-01-09T19:48:15.957Z,2.
2023-01-09T19:49:15.921Z,2.
2023-01-09T19:50:15.930Z,2.
2023-01-09T19:51:15.938Z,2.
2023-01-09T19:52:15.888Z,2.
2023-01-09T19:53:15.879Z,2.
2023-01-09T19:54:15.863Z,2.
2023-01-09T19:55:15.858Z,2.
2023-01-09T19:56:15.852Z,2.
2023-01-09T19:57:15.833Z,2.
2023-01-09T19:58:15.827Z,2.
2023-01-09T19:59:15.813Z,2.
2023-01-09T20:01:15.855Z,2.
2023-01-09T20:02:15.862Z,2.
2023-01-09T20:04:15.834Z,2.
2023-01-09T20:05:15.751Z,2.
2023-01-09T20:06:15.741Z,2.
2023-01-09T20:07:15.728Z,2.
2023-01-09T20:09:15.709Z,2.
2023-01-09T20:10:43.383Z,2.
2023-01-09T20:11:43.378Z,2.
2023-01-09T20:12:45.420Z,2.
2023-01-09T20:13:43.351Z,2.
2023-01-09T20:14:43.343Z,2.
2023-01-09T20:15:43.356Z,2.
2023-01-09T20:16:43.362Z,2.
2023-01-09T20:17:43.306Z,2.
2023-01-09T20:18:43.316Z,2.
